sensor_id;sensor_type;location;lat;lon;timestamp;pressure;altitude;pressure_sealevel;temperature;humidity
11499;BME280;5806;48.748;9.278;2023-04-09T00:01:17;101947.97;;;7.70;77.33
11499;BME280;5806;48.748;9.278;2023-04-09T00:03:44;101941.16;;;7.70;77.15
11499;BME280;5806;48.748;9.278;2023-04-09T00:06:12;101946.86;;;7.75;77.11
11499;BME280;5806;48.748;9.278;2023-04-09T00:08:39;101945.78;;;7.59;77.69
11499;BME280;5806;48.748;9.278;2023-04-09T00:11:06;101944.42;;;7.59;77.58
11499;BME280;5806;48.748;9.278;2023-04-09T00:13:34;101937.88;;;7.64;77.76
11499;BME280;5806;48.748;9.278;2023-04-09T00:16:01;101941.36;;;7.68;77.50
11499;BME280;5806;48.748;9.278;2023-04-09T00:18:29;101939.99;;;7.58;77.50
11499;BME280;5806;48.748;9.278;2023-04-09T00:20:56;101941.36;;;7.68;77.12
11499;BME280;5806;48.748;9.278;2023-04-09T00:23:24;101937.20;;;7.62;77.78
11499;BME280;5806;48.748;9.278;2023-04-09T00:25:51;101942.41;;;7.67;77.36
11499;BME280;5806;48.748;9.278;2023-04-09T00:28:19;101931.76;;;7.62;77.46
11499;BME280;5806;48.748;9.278;2023-04-09T00:30:46;101936.52;;;7.64;77.46
11499;BME280;5806;48.748;9.278;2023-04-09T00:33:14;101934.42;;;7.66;77.54
11499;BME280;5806;48.748;9.278;2023-04-09T00:35:41;101933.85;;;7.70;77.21
11499;BME280;5806;48.748;9.278;2023-04-09T00:38:09;101934.55;;;7.68;77.46
11499;BME280;5806;48.748;9.278;2023-04-09T00:40:36;101931.45;;;7.71;77.08
11499;BME280;5806;48.748;9.278;2023-04-09T00:43:04;101928.47;;;7.66;76.99
11499;BME280;5806;48.748;9.278;2023-04-09T00:45:32;101931.50;;;7.57;77.36
11499;BME280;5806;48.748;9.278;2023-04-09T00:48:00;101930.81;;;7.59;77.44
11499;BME280;5806;48.748;9.278;2023-04-09T00:50:27;101933.47;;;7.63;77.21
11499;BME280;5806;48.748;9.278;2023-04-09T00:52:55;101936.20;;;7.63;77.09
11499;BME280;5806;48.748;9.278;2023-04-09T00:55:23;101926.19;;;7.49;77.74
11499;BME280;5806;48.748;9.278;2023-04-09T00:57:51;101933.05;;;7.45;77.73
11499;BME280;5806;48.748;9.278;2023-04-09T01:00:18;101930.71;;;7.52;77.44
11499;BME280;5806;48.748;9.278;2023-04-09T01:02:47;101932.98;;;7.49;77.19
11499;BME280;5806;48.748;9.278;2023-04-09T01:05:16;101932.80;;;7.50;77.26
11499;BME280;5806;48.748;9.278;2023-04-09T01:10:44;101933.23;;;7.43;76.91
11499;BME280;5806;48.748;9.278;2023-04-09T01:13:17;101929.02;;;7.30;77.48
11499;BME280;5806;48.748;9.278;2023-04-09T01:15:50;101927.91;;;7.35;77.11
11499;BME280;5806;48.748;9.278;2023-04-09T01:18:35;101927.34;;;7.29;77.40
11499;BME280;5806;48.748;9.278;2023-04-09T01:21:13;101929.14;;;7.33;77.05
11499;BME280;5806;48.748;9.278;2023-04-09T01:29:04;101917.87;;;7.25;77.37
11499;BME280;5806;48.748;9.278;2023-04-09T01:31:35;101919.95;;;7.09;77.66
11499;BME280;5806;48.748;9.278;2023-04-09T01:34:05;101916.06;;;7.07;77.49
11499;BME280;5806;48.748;9.278;2023-04-09T01:36:35;101924.41;;;7.06;77.59
11499;BME280;5806;48.748;9.278;2023-04-09T01:39:04;101919.59;;;7.12;77.38
11499;BME280;5806;48.748;9.278;2023-04-09T01:41:33;101923.61;;;7.16;76.93
11499;BME280;5806;48.748;9.278;2023-04-09T01:44:02;101921.69;;;7.06;77.30
11499;BME280;5806;48.748;9.278;2023-04-09T01:46:32;101922.39;;;6.93;77.74
11499;BME280;5806;48.748;9.278;2023-04-09T01:49:01;101920.44;;;6.98;77.46
11499;BME280;5806;48.748;9.278;2023-04-09T01:51:29;101920.78;;;6.99;77.68
11499;BME280;5806;48.748;9.278;2023-04-09T01:53:59;101923.56;;;6.95;77.45
11499;BME280;5806;48.748;9.278;2023-04-09T01:56:26;101926.84;;;6.90;77.68
11499;BME280;5806;48.748;9.278;2023-04-09T01:58:54;101923.51;;;6.70;78.01
11499;BME280;5806;48.748;9.278;2023-04-09T02:01:32;101931.83;;;6.72;77.74
11499;BME280;5806;48.748;9.278;2023-04-09T02:03:59;101924.41;;;6.81;77.43
11499;BME280;5806;48.748;9.278;2023-04-09T02:09:00;101925.36;;;6.73;77.44
11499;BME280;5806;48.748;9.278;2023-04-09T02:11:30;101926.58;;;6.71;77.51
11499;BME280;5806;48.748;9.278;2023-04-09T02:14:02;101921.41;;;6.76;77.17
11499;BME280;5806;48.748;9.278;2023-04-09T02:16:31;101922.50;;;6.71;77.09
11499;BME280;5806;48.748;9.278;2023-04-09T02:18:59;101921.33;;;6.55;77.70
11499;BME280;5806;48.748;9.278;2023-04-09T02:21:27;101927.04;;;6.60;77.12
11499;BME280;5806;48.748;9.278;2023-04-09T02:23:55;101918.84;;;6.49;77.49
11499;BME280;5806;48.748;9.278;2023-04-09T02:26:23;101924.37;;;6.56;77.07
11499;BME280;5806;48.748;9.278;2023-04-09T02:28:50;101914.17;;;6.39;77.49
11499;BME280;5806;48.748;9.278;2023-04-09T02:31:18;101914.85;;;6.41;77.06
11499;BME280;5806;48.748;9.278;2023-04-09T02:33:45;101919.16;;;6.36;77.47
11499;BME280;5806;48.748;9.278;2023-04-09T02:36:13;101918.34;;;6.31;77.40
11499;BME280;5806;48.748;9.278;2023-04-09T02:38:41;101921.35;;;6.22;77.58
11499;BME280;5806;48.748;9.278;2023-04-09T02:41:09;101920.09;;;6.28;77.68
11499;BME280;5806;48.748;9.278;2023-04-09T02:43:36;101912.72;;;6.33;77.43
11499;BME280;5806;48.748;9.278;2023-04-09T02:46:04;101914.52;;;6.26;77.81
11499;BME280;5806;48.748;9.278;2023-04-09T02:48:32;101913.52;;;6.23;77.68
11499;BME280;5806;48.748;9.278;2023-04-09T02:50:59;101912.41;;;6.32;77.35
11499;BME280;5806;48.748;9.278;2023-04-09T02:53:27;101911.53;;;6.17;77.39
11499;BME280;5806;48.748;9.278;2023-04-09T02:55:54;101909.03;;;6.11;77.61
11499;BME280;5806;48.748;9.278;2023-04-09T02:58:23;101909.96;;;6.37;76.57
11499;BME280;5806;48.748;9.278;2023-04-09T03:00:50;101910.17;;;6.17;77.25
11499;BME280;5806;48.748;9.278;2023-04-09T03:03:18;101908.14;;;6.00;77.53
11499;BME280;5806;48.748;9.278;2023-04-09T03:05:45;101909.83;;;5.83;78.01
11499;BME280;5806;48.748;9.278;2023-04-09T03:08:13;101902.14;;;5.86;77.53
11499;BME280;5806;48.748;9.278;2023-04-09T03:10:41;101908.97;;;5.78;77.59
11499;BME280;5806;48.748;9.278;2023-04-09T03:13:08;101906.85;;;5.70;77.91
11499;BME280;5806;48.748;9.278;2023-04-09T03:15:38;101899.64;;;5.77;77.57
11499;BME280;5806;48.748;9.278;2023-04-09T03:18:05;101901.23;;;5.48;78.23
11499;BME280;5806;48.748;9.278;2023-04-09T03:20:33;101904.14;;;5.70;76.77
11499;BME280;5806;48.748;9.278;2023-04-09T03:23:02;101893.81;;;5.65;77.61
11499;BME280;5806;48.748;9.278;2023-04-09T03:25:29;101890.48;;;5.59;77.57
11499;BME280;5806;48.748;9.278;2023-04-09T03:27:56;101889.09;;;5.63;76.53
11499;BME280;5806;48.748;9.278;2023-04-09T03:30:24;101891.00;;;5.77;76.38
11499;BME280;5806;48.748;9.278;2023-04-09T03:32:51;101893.31;;;5.66;76.68
11499;BME280;5806;48.748;9.278;2023-04-09T03:35:19;101892.48;;;5.61;76.84
11499;BME280;5806;48.748;9.278;2023-04-09T03:37:47;101890.98;;;5.36;77.40
11499;BME280;5806;48.748;9.278;2023-04-09T03:40:14;101890.52;;;5.28;77.73
11499;BME280;5806;48.748;9.278;2023-04-09T03:42:42;101893.11;;;5.44;77.42
11499;BME280;5806;48.748;9.278;2023-04-09T03:45:10;101893.50;;;5.42;77.15
11499;BME280;5806;48.748;9.278;2023-04-09T03:47:37;101882.81;;;5.63;76.54
11499;BME280;5806;48.748;9.278;2023-04-09T03:50:05;101882.34;;;5.32;77.05
11499;BME280;5806;48.748;9.278;2023-04-09T03:52:33;101881.77;;;5.45;76.62
11499;BME280;5806;48.748;9.278;2023-04-09T03:55:02;101877.56;;;5.61;76.68
11499;BME280;5806;48.748;9.278;2023-04-09T03:57:30;101880.20;;;5.51;76.38
11499;BME280;5806;48.748;9.278;2023-04-09T03:59:57;101881.34;;;5.56;76.33
11499;BME280;5806;48.748;9.278;2023-04-09T04:02:25;101876.55;;;5.39;76.53
11499;BME280;5806;48.748;9.278;2023-04-09T04:04:54;101879.04;;;5.22;76.73
11499;BME280;5806;48.748;9.278;2023-04-09T04:07:22;101882.61;;;5.23;76.80
11499;BME280;5806;48.748;9.278;2023-04-09T04:09:49;101880.67;;;5.31;76.63
11499;BME280;5806;48.748;9.278;2023-04-09T04:12:16;101877.28;;;5.33;76.05
11499;BME280;5806;48.748;9.278;2023-04-09T04:14:44;101884.09;;;5.29;75.69
11499;BME280;5806;48.748;9.278;2023-04-09T04:17:11;101884.09;;;5.29;75.45
11499;BME280;5806;48.748;9.278;2023-04-09T04:19:39;101875.03;;;5.14;75.76
11499;BME280;5806;48.748;9.278;2023-04-09T04:22:06;101883.46;;;5.19;75.62
11499;BME280;5806;48.748;9.278;2023-04-09T04:24:34;101883.03;;;5.08;76.04
11499;BME280;5806;48.748;9.278;2023-04-09T04:27:01;101880.40;;;5.22;75.52
11499;BME280;5806;48.748;9.278;2023-04-09T04:29:29;101881.16;;;5.12;75.96
11499;BME280;5806;48.748;9.278;2023-04-09T04:31:57;101873.59;;;5.00;76.05
11499;BME280;5806;48.748;9.278;2023-04-09T04:34:26;101878.13;;;5.03;75.95
11499;BME280;5806;48.748;9.278;2023-04-09T04:36:54;101875.94;;;5.07;75.90
11499;BME280;5806;48.748;9.278;2023-04-09T04:39:21;101869.50;;;5.04;76.08
11499;BME280;5806;48.748;9.278;2023-04-09T04:41:48;101870.22;;;5.20;75.86
11499;BME280;5806;48.748;9.278;2023-04-09T04:44:16;101867.84;;;4.99;75.78
11499;BME280;5806;48.748;9.278;2023-04-09T04:46:43;101874.69;;;4.87;75.95
11499;BME280;5806;48.748;9.278;2023-04-09T04:49:11;101870.83;;;5.08;75.82
11499;BME280;5806;48.748;9.278;2023-04-09T04:51:38;101879.94;;;4.88;76.04
11499;BME280;5806;48.748;9.278;2023-04-09T04:54:06;101882.91;;;5.01;75.52
11499;BME280;5806;48.748;9.278;2023-04-09T04:56:33;101880.48;;;4.80;75.98
11499;BME280;5806;48.748;9.278;2023-04-09T04:59:01;101879.10;;;4.84;76.30
11499;BME280;5806;48.748;9.278;2023-04-09T05:01:28;101881.66;;;4.81;75.82
11499;BME280;5806;48.748;9.278;2023-04-09T05:03:56;101884.31;;;4.93;75.53
11499;BME280;5806;48.748;9.278;2023-04-09T05:06:23;101882.42;;;4.94;75.23
11499;BME280;5806;48.748;9.278;2023-04-09T05:08:52;101878.08;;;4.85;75.42
11499;BME280;5806;48.748;9.278;2023-04-09T05:11:21;101885.86;;;4.88;75.72
11499;BME280;5806;48.748;9.278;2023-04-09T05:13:49;101883.49;;;4.85;75.42
11499;BME280;5806;48.748;9.278;2023-04-09T05:16:22;101887.92;;;4.78;76.41
11499;BME280;5806;48.748;9.278;2023-04-09T05:18:46;101888.38;;;4.93;75.77
11499;BME280;5806;48.748;9.278;2023-04-09T05:21:14;101884.85;;;4.85;76.21
11499;BME280;5806;48.748;9.278;2023-04-09T05:23:41;101886.53;;;4.86;76.50
11499;BME280;5806;48.748;9.278;2023-04-09T05:26:08;101890.34;;;5.03;75.61
11499;BME280;5806;48.748;9.278;2023-04-09T05:28:36;101895.55;;;5.13;75.67
11499;BME280;5806;48.748;9.278;2023-04-09T05:31:04;101895.63;;;4.97;75.81
11499;BME280;5806;48.748;9.278;2023-04-09T05:33:33;101901.73;;;4.99;75.96
11499;BME280;5806;48.748;9.278;2023-04-09T05:36:02;101896.70;;;4.88;76.82
11499;BME280;5806;48.748;9.278;2023-04-09T05:38:30;101899.38;;;4.96;76.39
11499;BME280;5806;48.748;9.278;2023-04-09T05:40:57;101899.73;;;4.89;76.74
11499;BME280;5806;48.748;9.278;2023-04-09T05:43:25;101903.09;;;4.99;76.93
11499;BME280;5806;48.748;9.278;2023-04-09T05:45:52;101907.05;;;5.19;76.10
11499;BME280;5806;48.748;9.278;2023-04-09T05:48:21;101902.85;;;5.12;76.06
11499;BME280;5806;48.748;9.278;2023-04-09T05:50:52;101902.34;;;5.09;76.29
11499;BME280;5806;48.748;9.278;2023-04-09T05:53:20;101906.58;;;5.07;77.01
11499;BME280;5806;48.748;9.278;2023-04-09T05:55:48;101911.11;;;5.19;77.14
11499;BME280;5806;48.748;9.278;2023-04-09T05:58:17;101906.61;;;5.30;76.96
11499;BME280;5806;48.748;9.278;2023-04-09T06:00:45;101902.25;;;5.25;77.12
11499;BME280;5806;48.748;9.278;2023-04-09T06:03:12;101903.67;;;5.39;76.62
11499;BME280;5806;48.748;9.278;2023-04-09T06:05:39;101905.73;;;5.38;77.08
11499;BME280;5806;48.748;9.278;2023-04-09T06:08:08;101907.06;;;5.42;77.31
11499;BME280;5806;48.748;9.278;2023-04-09T06:10:35;101895.27;;;5.53;76.99
11499;BME280;5806;48.748;9.278;2023-04-09T06:13:03;101892.39;;;5.73;76.44
11499;BME280;5806;48.748;9.278;2023-04-09T06:15:31;101899.53;;;5.70;77.08
11499;BME280;5806;48.748;9.278;2023-04-09T06:17:59;101897.61;;;5.83;77.12
11499;BME280;5806;48.748;9.278;2023-04-09T06:20:26;101895.96;;;5.96;76.85
11499;BME280;5806;48.748;9.278;2023-04-09T06:22:53;101899.70;;;6.14;76.59
11499;BME280;5806;48.748;9.278;2023-04-09T06:25:21;101895.48;;;6.84;74.58
11499;BME280;5806;48.748;9.278;2023-04-09T06:27:48;101894.63;;;7.54;71.62
11499;BME280;5806;48.748;9.278;2023-04-09T06:30:16;101890.41;;;9.56;65.28
11499;BME280;5806;48.748;9.278;2023-04-09T06:32:43;101887.30;;;11.98;57.34
11499;BME280;5806;48.748;9.278;2023-04-09T06:35:12;101892.01;;;11.53;57.98
11499;BME280;5806;48.748;9.278;2023-04-09T06:37:39;101888.20;;;10.66;60.90
11499;BME280;5806;48.748;9.278;2023-04-09T06:40:08;101903.06;;;9.33;65.45
11499;BME280;5806;48.748;9.278;2023-04-09T06:42:36;101897.50;;;8.43;69.45
11499;BME280;5806;48.748;9.278;2023-04-09T06:45:04;101905.09;;;8.48;69.72
11499;BME280;5806;48.748;9.278;2023-04-09T06:47:34;101894.22;;;8.54;70.60
11499;BME280;5806;48.748;9.278;2023-04-09T06:50:02;101905.56;;;8.58;70.22
11499;BME280;5806;48.748;9.278;2023-04-09T06:52:29;101897.28;;;8.96;65.19
11499;BME280;5806;48.748;9.278;2023-04-09T06:54:57;101901.63;;;9.07;62.64
11499;BME280;5806;48.748;9.278;2023-04-09T06:57:25;101912.77;;;8.89;64.10
11499;BME280;5806;48.748;9.278;2023-04-09T06:59:52;101906.50;;;9.18;63.55
11499;BME280;5806;48.748;9.278;2023-04-09T07:02:20;101912.48;;;8.94;67.26
11499;BME280;5806;48.748;9.278;2023-04-09T07:04:47;101920.30;;;8.87;63.05
11499;BME280;5806;48.748;9.278;2023-04-09T07:07:15;101914.00;;;8.69;67.64
11499;BME280;5806;48.748;9.278;2023-04-09T07:09:43;101918.02;;;8.56;69.70
11499;BME280;5806;48.748;9.278;2023-04-09T07:12:10;101915.02;;;8.96;63.93
11499;BME280;5806;48.748;9.278;2023-04-09T07:14:38;101910.20;;;9.04;63.55
11499;BME280;5806;48.748;9.278;2023-04-09T07:17:05;101915.13;;;8.98;62.67
11499;BME280;5806;48.748;9.278;2023-04-09T07:19:32;101922.11;;;9.14;63.09
11499;BME280;5806;48.748;9.278;2023-04-09T07:22:00;101920.66;;;9.18;61.68
11499;BME280;5806;48.748;9.278;2023-04-09T07:24:27;101917.80;;;9.09;62.01
11499;BME280;5806;48.748;9.278;2023-04-09T07:26:55;101922.72;;;9.33;62.13
11499;BME280;5806;48.748;9.278;2023-04-09T07:29:22;101924.58;;;9.26;63.64
11499;BME280;5806;48.748;9.278;2023-04-09T07:31:49;101920.73;;;9.44;62.32
11499;BME280;5806;48.748;9.278;2023-04-09T07:34:17;101925.19;;;9.51;61.27
11499;BME280;5806;48.748;9.278;2023-04-09T07:36:44;101926.77;;;9.56;60.22
11499;BME280;5806;48.748;9.278;2023-04-09T07:39:12;101915.25;;;9.87;60.07
11499;BME280;5806;48.748;9.278;2023-04-09T07:41:39;101923.72;;;10.18;59.36
11499;BME280;5806;48.748;9.278;2023-04-09T07:44:06;101922.02;;;10.43;58.76
11499;BME280;5806;48.748;9.278;2023-04-09T07:46:34;101922.55;;;10.23;58.49
11499;BME280;5806;48.748;9.278;2023-04-09T07:49:02;101919.55;;;10.70;59.41
11499;BME280;5806;48.748;9.278;2023-04-09T07:51:29;101916.56;;;10.85;56.89
11499;BME280;5806;48.748;9.278;2023-04-09T07:53:57;101917.52;;;10.88;56.18
11499;BME280;5806;48.748;9.278;2023-04-09T07:56:24;101908.27;;;11.04;55.78
11499;BME280;5806;48.748;9.278;2023-04-09T07:58:52;101910.61;;;11.23;56.53
11499;BME280;5806;48.748;9.278;2023-04-09T08:01:19;101910.86;;;11.15;55.93
11499;BME280;5806;48.748;9.278;2023-04-09T08:03:48;101915.89;;;11.40;58.12
11499;BME280;5806;48.748;9.278;2023-04-09T08:06:16;101906.64;;;11.41;57.75
11499;BME280;5806;48.748;9.278;2023-04-09T08:08:43;101910.97;;;11.39;58.30
11499;BME280;5806;48.748;9.278;2023-04-09T08:11:11;101911.95;;;11.51;56.23
11499;BME280;5806;48.748;9.278;2023-04-09T08:13:38;101910.92;;;11.46;57.73
11499;BME280;5806;48.748;9.278;2023-04-09T08:16:06;101908.33;;;11.79;55.76
11499;BME280;5806;48.748;9.278;2023-04-09T08:18:33;101911.54;;;11.85;54.28
11499;BME280;5806;48.748;9.278;2023-04-09T08:21:05;101910.58;;;11.89;51.47
11499;BME280;5806;48.748;9.278;2023-04-09T08:23:33;101907.52;;;12.03;52.51
11499;BME280;5806;48.748;9.278;2023-04-09T08:26:00;101911.48;;;11.92;55.40
11499;BME280;5806;48.748;9.278;2023-04-09T08:28:28;101913.55;;;11.87;52.92
11499;BME280;5806;48.748;9.278;2023-04-09T08:30:55;101911.87;;;12.11;52.22
11499;BME280;5806;48.748;9.278;2023-04-09T08:33:22;101909.10;;;12.02;51.99
11499;BME280;5806;48.748;9.278;2023-04-09T08:35:50;101910.20;;;12.10;51.79
11499;BME280;5806;48.748;9.278;2023-04-09T08:38:20;101914.09;;;12.11;50.79
11499;BME280;5806;48.748;9.278;2023-04-09T08:40:48;101910.23;;;12.28;51.99
11499;BME280;5806;48.748;9.278;2023-04-09T08:43:15;101907.80;;;12.29;52.96
11499;BME280;5806;48.748;9.278;2023-04-09T08:45:45;101913.73;;;12.01;55.22
11499;BME280;5806;48.748;9.278;2023-04-09T08:48:13;101907.41;;;12.25;53.16
11499;BME280;5806;48.748;9.278;2023-04-09T08:50:41;101912.02;;;12.31;55.45
11499;BME280;5806;48.748;9.278;2023-04-09T08:53:09;101912.30;;;12.23;56.04
11499;BME280;5806;48.748;9.278;2023-04-09T08:55:37;101908.13;;;12.30;50.37
11499;BME280;5806;48.748;9.278;2023-04-09T08:58:05;101911.27;;;12.09;49.03
11499;BME280;5806;48.748;9.278;2023-04-09T09:00:33;101914.25;;;12.16;48.64
11499;BME280;5806;48.748;9.278;2023-04-09T09:03:09;101908.25;;;12.17;51.08
11499;BME280;5806;48.748;9.278;2023-04-09T09:05:40;101908.61;;;11.96;52.88
11499;BME280;5806;48.748;9.278;2023-04-09T09:08:22;101906.36;;;11.86;50.90
11499;BME280;5806;48.748;9.278;2023-04-09T09:10:51;101911.05;;;11.95;48.80
11499;BME280;5806;48.748;9.278;2023-04-09T09:13:26;101902.92;;;12.22;48.70
11499;BME280;5806;48.748;9.278;2023-04-09T09:16:17;101905.19;;;12.25;47.76
11499;BME280;5806;48.748;9.278;2023-04-09T09:18:41;101901.08;;;12.25;48.10
11499;BME280;5806;48.748;9.278;2023-04-09T09:21:10;101904.67;;;12.25;50.90
11499;BME280;5806;48.748;9.278;2023-04-09T09:23:38;101906.27;;;12.24;50.90
11499;BME280;5806;48.748;9.278;2023-04-09T09:26:16;101901.34;;;12.32;47.42
11499;BME280;5806;48.748;9.278;2023-04-09T09:28:45;101906.53;;;12.31;46.32
11499;BME280;5806;48.748;9.278;2023-04-09T09:31:16;101901.52;;;12.46;45.67
11499;BME280;5806;48.748;9.278;2023-04-09T09:33:44;101898.69;;;12.35;46.47
11499;BME280;5806;48.748;9.278;2023-04-09T09:36:13;101889.28;;;12.58;46.84
11499;BME280;5806;48.748;9.278;2023-04-09T09:38:55;101890.16;;;12.43;45.66
11499;BME280;5806;48.748;9.278;2023-04-09T09:41:23;101891.16;;;12.48;43.87
11499;BME280;5806;48.748;9.278;2023-04-09T09:43:51;101900.20;;;12.31;44.02
11499;BME280;5806;48.748;9.278;2023-04-09T09:46:20;101884.97;;;12.44;45.49
11499;BME280;5806;48.748;9.278;2023-04-09T09:48:48;101885.67;;;12.39;47.78
11499;BME280;5806;48.748;9.278;2023-04-09T09:51:16;101880.70;;;12.39;47.55
11499;BME280;5806;48.748;9.278;2023-04-09T09:53:45;101881.00;;;12.49;47.35
11499;BME280;5806;48.748;9.278;2023-04-09T09:56:18;101889.00;;;12.32;45.12
11499;BME280;5806;48.748;9.278;2023-04-09T10:01:43;101880.55;;;12.09;45.45
11499;BME280;5806;48.748;9.278;2023-04-09T10:04:14;101870.41;;;12.01;46.87
11499;BME280;5806;48.748;9.278;2023-04-09T10:06:45;101870.85;;;11.98;46.36
11499;BME280;5806;48.748;9.278;2023-04-09T10:09:13;101870.14;;;12.51;47.12
11499;BME280;5806;48.748;9.278;2023-04-09T10:11:41;101868.60;;;12.82;45.68
11499;BME280;5806;48.748;9.278;2023-04-09T10:14:11;101871.48;;;12.87;46.66
11499;BME280;5806;48.748;9.278;2023-04-09T10:16:40;101869.08;;;12.79;45.23
11499;BME280;5806;48.748;9.278;2023-04-09T10:19:07;101871.84;;;12.37;47.35
11499;BME280;5806;48.748;9.278;2023-04-09T10:21:49;101864.80;;;12.47;45.92
11499;BME280;5806;48.748;9.278;2023-04-09T10:24:16;101864.80;;;12.65;46.31
11499;BME280;5806;48.748;9.278;2023-04-09T10:26:43;101861.20;;;12.65;43.99
11499;BME280;5806;48.748;9.278;2023-04-09T10:29:13;101859.48;;;12.97;45.03
11499;BME280;5806;48.748;9.278;2023-04-09T10:32:05;101860.84;;;13.06;46.01
11499;BME280;5806;48.748;9.278;2023-04-09T10:34:38;101863.93;;;13.28;44.62
11499;BME280;5806;48.748;9.278;2023-04-09T10:37:14;101860.84;;;12.79;45.21
11499;BME280;5806;48.748;9.278;2023-04-09T10:39:46;101861.45;;;12.63;46.54
11499;BME280;5806;48.748;9.278;2023-04-09T10:42:20;101853.20;;;12.81;46.95
11499;BME280;5806;48.748;9.278;2023-04-09T10:45:10;101859.22;;;12.81;47.03
11499;BME280;5806;48.748;9.278;2023-04-09T10:47:59;101851.67;;;12.49;46.82
11499;BME280;5806;48.748;9.278;2023-04-09T10:50:31;101854.27;;;12.44;46.67
11499;BME280;5806;48.748;9.278;2023-04-09T10:53:02;101859.61;;;12.57;48.10
11499;BME280;5806;48.748;9.278;2023-04-09T10:55:33;101850.00;;;12.66;49.37
11499;BME280;5806;48.748;9.278;2023-04-09T10:58:08;101848.48;;;12.52;48.34
11499;BME280;5806;48.748;9.278;2023-04-09T11:00:35;101852.15;;;12.55;49.39
11499;BME280;5806;48.748;9.278;2023-04-09T11:03:29;101841.77;;;13.02;48.32
11499;BME280;5806;48.748;9.278;2023-04-09T11:06:02;101846.97;;;13.01;45.07
11499;BME280;5806;48.748;9.278;2023-04-09T11:08:32;101849.46;;;13.12;45.78
11499;BME280;5806;48.748;9.278;2023-04-09T11:11:00;101842.34;;;12.95;43.06
11499;BME280;5806;48.748;9.278;2023-04-09T11:13:30;101834.58;;;12.83;44.40
11499;BME280;5806;48.748;9.278;2023-04-09T11:15:57;101830.16;;;12.82;44.04
11499;BME280;5806;48.748;9.278;2023-04-09T11:18:28;101823.95;;;13.23;44.72
11499;BME280;5806;48.748;9.278;2023-04-09T11:21:00;101824.09;;;13.28;43.88
11499;BME280;5806;48.748;9.278;2023-04-09T11:23:29;101822.38;;;13.06;44.69
11499;BME280;5806;48.748;9.278;2023-04-09T11:25:57;101823.97;;;12.96;46.58
11499;BME280;5806;48.748;9.278;2023-04-09T11:28:25;101826.36;;;13.01;44.64
11499;BME280;5806;48.748;9.278;2023-04-09T11:30:53;101820.25;;;12.99;43.95
11499;BME280;5806;48.748;9.278;2023-04-09T11:33:20;101812.86;;;13.00;45.48
11499;BME280;5806;48.748;9.278;2023-04-09T11:35:48;101810.64;;;13.08;46.07
11499;BME280;5806;48.748;9.278;2023-04-09T11:38:17;101804.88;;;13.39;48.41
11499;BME280;5806;48.748;9.278;2023-04-09T11:40:44;101805.34;;;13.57;42.09
11499;BME280;5806;48.748;9.278;2023-04-09T11:43:14;101806.25;;;13.39;42.28
11499;BME280;5806;48.748;9.278;2023-04-09T11:45:43;101796.84;;;13.26;42.67
11499;BME280;5806;48.748;9.278;2023-04-09T11:48:13;101810.16;;;13.11;43.59
11499;BME280;5806;48.748;9.278;2023-04-09T11:50:42;101817.58;;;13.11;44.20
11499;BME280;5806;48.748;9.278;2023-04-09T11:53:20;101806.33;;;13.21;43.57
11499;BME280;5806;48.748;9.278;2023-04-09T11:55:52;101812.05;;;13.20;44.34
11499;BME280;5806;48.748;9.278;2023-04-09T11:58:24;101808.00;;;13.22;43.54
11499;BME280;5806;48.748;9.278;2023-04-09T12:00:57;101808.33;;;13.14;44.10
11499;BME280;5806;48.748;9.278;2023-04-09T12:03:28;101810.48;;;13.03;43.04
11499;BME280;5806;48.748;9.278;2023-04-09T12:05:56;101807.34;;;13.09;44.86
11499;BME280;5806;48.748;9.278;2023-04-09T12:08:26;101803.84;;;13.31;45.32
11499;BME280;5806;48.748;9.278;2023-04-09T12:10:53;101803.92;;;13.66;41.81
11499;BME280;5806;48.748;9.278;2023-04-09T12:13:21;101802.30;;;13.35;43.60
11499;BME280;5806;48.748;9.278;2023-04-09T12:15:50;101802.73;;;13.30;42.94
11499;BME280;5806;48.748;9.278;2023-04-09T12:18:17;101801.81;;;13.27;43.23
11499;BME280;5806;48.748;9.278;2023-04-09T12:20:46;101805.54;;;13.32;43.33
11499;BME280;5806;48.748;9.278;2023-04-09T12:23:15;101800.75;;;13.39;43.64
11499;BME280;5806;48.748;9.278;2023-04-09T12:25:43;101800.13;;;13.46;43.14
11499;BME280;5806;48.748;9.278;2023-04-09T12:28:14;101805.58;;;13.55;44.33
11499;BME280;5806;48.748;9.278;2023-04-09T12:30:43;101804.59;;;13.38;43.55
11499;BME280;5806;48.748;9.278;2023-04-09T12:33:11;101798.56;;;13.39;43.71
11499;BME280;5806;48.748;9.278;2023-04-09T12:35:38;101795.36;;;13.42;45.17
11499;BME280;5806;48.748;9.278;2023-04-09T12:38:06;101797.66;;;13.36;42.99
11499;BME280;5806;48.748;9.278;2023-04-09T12:40:34;101787.41;;;13.43;42.20
11499;BME280;5806;48.748;9.278;2023-04-09T12:43:02;101788.09;;;13.38;41.72
11499;BME280;5806;48.748;9.278;2023-04-09T12:45:30;101791.63;;;13.36;43.14
11499;BME280;5806;48.748;9.278;2023-04-09T12:47:58;101791.53;;;13.43;44.50
11499;BME280;5806;48.748;9.278;2023-04-09T12:50:25;101789.13;;;13.46;42.39
11499;BME280;5806;48.748;9.278;2023-04-09T12:52:53;101785.53;;;13.46;41.69
11499;BME280;5806;48.748;9.278;2023-04-09T12:55:21;101783.89;;;14.00;41.27
11499;BME280;5806;48.748;9.278;2023-04-09T12:57:50;101787.26;;;14.25;43.09
11499;BME280;5806;48.748;9.278;2023-04-09T13:00:17;101784.62;;;14.07;41.84
11499;BME280;5806;48.748;9.278;2023-04-09T13:02:44;101784.27;;;13.71;43.77
11499;BME280;5806;48.748;9.278;2023-04-09T13:05:12;101789.70;;;13.57;43.83
11499;BME280;5806;48.748;9.278;2023-04-09T13:07:39;101783.57;;;13.64;44.33
11499;BME280;5806;48.748;9.278;2023-04-09T13:10:08;101782.72;;;13.75;44.75
11499;BME280;5806;48.748;9.278;2023-04-09T13:12:36;101776.34;;;13.72;42.77
11499;BME280;5806;48.748;9.278;2023-04-09T13:15:04;101770.52;;;13.71;43.54
11499;BME280;5806;48.748;9.278;2023-04-09T13:17:31;101773.77;;;13.68;43.15
11499;BME280;5806;48.748;9.278;2023-04-09T13:19:59;101763.48;;;13.75;42.53
11499;BME280;5806;48.748;9.278;2023-04-09T13:22:27;101771.73;;;13.64;41.18
11499;BME280;5806;48.748;9.278;2023-04-09T13:24:54;101770.88;;;13.63;41.41
11499;BME280;5806;48.748;9.278;2023-04-09T13:27:22;101767.25;;;13.60;41.80